Time;durP1;ratioP1;P1;durP2;ratioP2;P2;SDS_P1;SDS_P2;PMS_P1;PMS_P2;Temp;Humidity;BMP_temperature;BMP_pressure;BME280_temperature;BME280_humidity;BME280_pressure;Samples;Min_cycle;Max_cycle;Signal;HPM_P1;HPM_P2
2024/01/16 00:01:28;;;;;;;6.33;2.80;;;-2.20;99.90;;;;;;5011850;28;20144;-85
2024/01/16 00:03:53;;;;;;;6.67;2.63;;;-2.20;99.90;;;;;;5010310;28;20068;-88
2024/01/16 00:06:19;;;;;;;5.60;2.70;;;-2.30;99.90;;;;;;5010173;28;20053;-85
2024/01/16 00:08:45;;;;;;;7.57;3.27;;;-2.40;99.90;;;;;;5011218;28;20029;-86
2024/01/16 00:11:10;;;;;;;5.77;3.17;;;-2.40;99.90;;;;;;5011409;28;20042;-85
2024/01/16 00:13:36;;;;;;;6.00;3.07;;;-2.50;99.90;;;;;;5011637;28;20034;-85
2024/01/16 00:16:05;;;;;;;4.23;2.90;;;-2.60;99.90;;;;;;5010384;28;20036;-85
2024/01/16 00:18:30;;;;;;;8.10;3.30;;;-2.70;99.90;;;;;;5009728;28;20034;-85
2024/01/16 00:20:56;;;;;;;5.57;2.93;;;-2.70;99.90;;;;;;5007997;28;20041;-85
2024/01/16 00:23:21;;;;;;;6.23;3.23;;;-2.80;99.90;;;;;;5008766;28;20033;-86
2024/01/16 00:25:47;;;;;;;5.57;3.13;;;-2.90;99.90;;;;;;5010107;28;20098;-85
2024/01/16 00:28:12;;;;;;;5.80;3.00;;;-2.90;99.90;;;;;;5008392;28;20026;-85
2024/01/16 00:30:39;;;;;;;6.30;3.17;;;-3.00;99.90;;;;;;5009595;28;20022;-87
2024/01/16 00:33:04;;;;;;;5.80;3.07;;;-3.00;99.90;;;;;;5009423;28;20042;-86
2024/01/16 00:35:30;;;;;;;5.80;3.33;;;-3.10;99.90;;;;;;5007912;28;20124;-86
2024/01/16 00:37:56;;;;;;;6.20;3.07;;;-3.20;99.90;;;;;;4990475;28;21522;-86
2024/01/16 00:40:21;;;;;;;5.17;3.20;;;-3.20;99.90;;;;;;5008785;28;20038;-87
2024/01/16 00:42:47;;;;;;;6.30;3.23;;;-3.30;99.90;;;;;;5010207;28;20072;-85
2024/01/16 00:45:12;;;;;;;5.37;2.90;;;-3.30;99.90;;;;;;5008683;28;20033;-85
2024/01/16 00:47:41;;;;;;;5.27;2.80;;;-3.40;99.90;;;;;;5009680;28;20041;-87
2024/01/16 00:50:07;;;;;;;6.90;3.30;;;-3.50;99.90;;;;;;5008807;28;20097;-86
2024/01/16 00:52:32;;;;;;;7.20;2.87;;;-3.50;99.90;;;;;;5008963;28;20184;-85
2024/01/16 00:54:58;;;;;;;5.60;2.90;;;-3.60;99.90;;;;;;5008665;28;20049;-86
2024/01/16 00:57:23;;;;;;;6.10;3.17;;;-3.60;99.90;;;;;;5009913;28;20045;-85
2024/01/16 00:59:49;;;;;;;7.33;3.57;;;-3.70;99.90;;;;;;5009895;28;20397;-85
2024/01/16 01:02:15;;;;;;;6.70;3.20;;;-3.70;99.90;;;;;;5007260;28;20591;-87
2024/01/16 01:04:41;;;;;;;5.00;2.70;;;-3.80;99.90;;;;;;5009310;28;20493;-86
2024/01/16 01:07:08;;;;;;;6.93;2.80;;;-3.80;99.90;;;;;;5008689;28;20045;-85
2024/01/16 01:09:34;;;;;;;6.00;3.10;;;-3.80;99.90;;;;;;5008457;28;20037;-84
2024/01/16 01:11:59;;;;;;;5.97;3.03;;;-3.80;99.90;;;;;;5009070;28;20520;-84
2024/01/16 01:14:26;;;;;;;7.90;2.83;;;-3.90;99.90;;;;;;5008509;28;20093;-85
2024/01/16 01:16:52;;;;;;;4.67;2.83;;;-3.90;99.90;;;;;;5007100;28;20056;-84
2024/01/16 01:19:18;;;;;;;5.23;3.20;;;-3.90;99.90;;;;;;5007921;28;20030;-85
2024/01/16 01:21:43;;;;;;;7.27;3.00;;;-3.90;99.90;;;;;;5009165;28;20167;-85
2024/01/16 01:24:09;;;;;;;4.87;2.83;;;-3.90;99.90;;;;;;5009242;28;20042;-84
2024/01/16 01:26:35;;;;;;;7.57;2.57;;;-3.90;99.90;;;;;;5007910;28;20030;-85
2024/01/16 01:29:01;;;;;;;5.90;3.33;;;-3.90;99.90;;;;;;5007504;28;20038;-85
2024/01/16 01:31:27;;;;;;;5.30;3.00;;;-3.90;99.90;;;;;;5008485;28;20034;-85
2024/01/16 01:33:53;;;;;;;5.37;3.27;;;-3.90;99.90;;;;;;5005968;28;20092;-87
2024/01/16 01:36:18;;;;;;;7.80;3.17;;;-3.90;99.90;;;;;;5007892;28;20100;-85
2024/01/16 01:38:44;;;;;;;4.00;2.63;;;-3.80;99.90;;;;;;5007980;28;20041;-84
2024/01/16 01:41:11;;;;;;;5.40;3.20;;;-3.80;99.90;;;;;;5008502;28;20048;-85
2024/01/16 01:43:37;;;;;;;4.80;2.80;;;-3.80;99.90;;;;;;5008652;28;20072;-84
2024/01/16 01:46:14;;;;;;;7.90;3.10;;;-3.80;99.90;;;;;;5011144;28;20033;-86
2024/01/16 01:48:44;;;;;;;6.80;3.10;;;-3.80;99.90;;;;;;5010710;28;20053;-86
2024/01/16 01:51:11;;;;;;;6.77;3.33;;;-3.80;99.90;;;;;;5011555;28;20022;-85
2024/01/16 01:53:38;;;;;;;4.87;2.73;;;-3.80;99.90;;;;;;5009113;28;20211;-87
2024/01/16 01:56:07;;;;;;;3.93;2.87;;;-3.80;99.90;;;;;;5011328;28;20571;-85
2024/01/16 01:58:34;;;;;;;5.53;2.97;;;-3.70;99.90;;;;;;5011085;28;20022;-86
2024/01/16 02:01:02;;;;;;;7.00;2.90;;;-3.70;99.90;;;;;;5008679;28;20037;-85
2024/01/16 02:03:32;;;;;;;5.23;2.77;;;-3.70;99.90;;;;;;5010314;28;20420;-86
2024/01/16 02:05:59;;;;;;;5.77;2.90;;;-3.60;99.90;;;;;;5010001;28;20041;-84
2024/01/16 02:08:24;;;;;;;5.47;2.67;;;-3.60;99.90;;;;;;5010020;28;20026;-84
2024/01/16 02:10:50;;;;;;;5.83;2.67;;;-3.50;99.90;;;;;;5009307;28;20028;-84
2024/01/16 02:13:20;;;;;;;6.40;2.83;;;-3.50;99.90;;;;;;5008813;28;20083;-86
2024/01/16 02:15:46;;;;;;;9.77;2.37;;;-3.50;99.90;;;;;;5008100;28;20033;-85
2024/01/16 02:18:11;;;;;;;4.93;2.67;;;-3.50;99.90;;;;;;5006707;28;20026;-84
2024/01/16 02:20:37;;;;;;;4.57;2.67;;;-3.50;99.90;;;;;;5008729;28;20030;-86
2024/01/16 02:23:05;;;;;;;4.37;2.63;;;-3.50;99.90;;;;;;5008751;28;20030;-85
2024/01/16 02:25:31;;;;;;;6.27;2.60;;;-3.60;99.90;;;;;;5009619;28;20022;-85
2024/01/16 02:27:57;;;;;;;6.00;2.87;;;-3.60;99.90;;;;;;5009215;28;20117;-85
2024/01/16 02:30:23;;;;;;;5.13;2.70;;;-3.50;99.90;;;;;;5008219;28;20010;-85
2024/01/16 02:32:48;;;;;;;4.17;2.60;;;-3.50;99.90;;;;;;5007276;28;21136;-84
2024/01/16 02:35:15;;;;;;;4.27;2.63;;;-3.40;99.90;;;;;;5008173;28;20980;-84
2024/01/16 02:37:40;;;;;;;5.00;2.60;;;-3.40;99.90;;;;;;5008228;28;20022;-84
2024/01/16 02:40:06;;;;;;;6.27;3.03;;;-3.40;99.90;;;;;;4991438;28;20048;-84
2024/01/16 02:42:32;;;;;;;6.23;2.50;;;-3.30;99.90;;;;;;5011831;28;20044;-84
2024/01/16 02:44:58;;;;;;;4.73;2.37;;;-3.30;99.90;;;;;;5009482;28;20030;-84
2024/01/16 02:47:24;;;;;;;5.17;2.37;;;-3.30;99.90;;;;;;5016138;28;20056;-85
2024/01/16 02:49:50;;;;;;;4.40;2.57;;;-3.30;99.90;;;;;;5013997;28;20022;-84
2024/01/16 02:52:15;;;;;;;5.43;3.57;;;-3.30;99.90;;;;;;5012865;28;20028;-87
2024/01/16 02:54:41;;;;;;;4.63;2.70;;;-3.30;99.90;;;;;;5015266;28;20086;-84
2024/01/16 02:57:07;;;;;;;4.17;2.13;;;-3.30;99.90;;;;;;5009190;28;20087;-84
2024/01/16 02:59:32;;;;;;;5.43;2.60;;;-3.40;99.90;;;;;;5007146;28;20092;-84
2024/01/16 03:01:58;;;;;;;4.00;2.10;;;-3.40;99.90;;;;;;5008905;28;20030;-86
2024/01/16 03:04:23;;;;;;;6.10;2.53;;;-3.40;99.90;;;;;;5007222;28;20045;-85
2024/01/16 03:06:49;;;;;;;6.60;3.03;;;-3.40;99.90;;;;;;5007943;28;20187;-84
2024/01/16 03:09:15;;;;;;;7.77;2.40;;;-3.50;99.90;;;;;;5008691;28;20026;-85
2024/01/16 03:11:41;;;;;;;4.93;2.87;;;-3.50;99.90;;;;;;5007597;28;20117;-84
2024/01/16 03:14:07;;;;;;;4.80;2.27;;;-3.50;99.90;;;;;;5007521;28;20244;-84
2024/01/16 03:16:32;;;;;;;4.67;2.30;;;-3.50;99.90;;;;;;5006537;28;20030;-84
2024/01/16 03:18:58;;;;;;;5.17;2.47;;;-3.50;99.90;;;;;;5007835;28;20063;-86
2024/01/16 03:21:24;;;;;;;4.47;2.70;;;-3.60;99.90;;;;;;5006978;28;20099;-84
2024/01/16 03:23:50;;;;;;;4.40;2.63;;;-3.60;99.90;;;;;;5007105;28;20165;-85
2024/01/16 03:26:16;;;;;;;5.00;2.67;;;-3.60;99.90;;;;;;5006915;28;20113;-84
2024/01/16 03:28:42;;;;;;;4.30;2.57;;;-3.70;99.90;;;;;;5006389;28;20030;-85
2024/01/16 03:31:08;;;;;;;3.77;2.40;;;-3.70;99.90;;;;;;5008475;28;20021;-84
2024/01/16 03:33:34;;;;;;;3.73;2.57;;;-3.70;99.90;;;;;;4989879;28;20103;-86
2024/01/16 03:36:01;;;;;;;6.07;2.87;;;-3.70;99.90;;;;;;5006673;28;20058;-85
2024/01/16 03:38:27;;;;;;;4.77;2.83;;;-3.80;99.90;;;;;;5007153;28;20018;-87
2024/01/16 03:40:52;;;;;;;5.87;2.80;;;-3.70;99.90;;;;;;5007091;28;20036;-85
2024/01/16 03:43:18;;;;;;;4.93;2.53;;;-3.70;99.90;;;;;;5008759;28;20025;-84
2024/01/16 03:45:44;;;;;;;6.70;3.10;;;-3.70;99.90;;;;;;4990490;28;20045;-84
2024/01/16 03:48:09;;;;;;;5.33;2.90;;;-3.70;99.90;;;;;;5008247;28;20080;-84
2024/01/16 03:50:36;;;;;;;6.30;2.90;;;-3.70;99.90;;;;;;5007901;28;20545;-84
2024/01/16 03:53:03;;;;;;;6.00;2.50;;;-3.70;99.90;;;;;;5008173;28;20057;-84
2024/01/16 03:55:30;;;;;;;4.13;2.47;;;-3.70;99.90;;;;;;5007206;28;20030;-85
2024/01/16 03:57:55;;;;;;;7.20;2.80;;;-3.70;99.90;;;;;;5007294;28;20680;-86
2024/01/16 04:00:21;;;;;;;7.07;2.70;;;-3.70;99.90;;;;;;5007756;28;20030;-84
2024/01/16 04:02:47;;;;;;;7.23;2.80;;;-3.70;99.90;;;;;;5007216;28;20026;-84
2024/01/16 04:05:12;;;;;;;4.73;2.53;;;-3.70;99.90;;;;;;5006527;28;20439;-85
2024/01/16 04:07:38;;;;;;;7.13;2.80;;;-3.70;99.90;;;;;;5008160;28;20044;-84
2024/01/16 04:10:06;;;;;;;6.07;2.73;;;-3.70;99.90;;;;;;5006538;28;20036;-84
2024/01/16 04:12:31;;;;;;;6.53;3.00;;;-3.70;99.90;;;;;;5006982;28;20084;-85
2024/01/16 04:14:57;;;;;;;5.80;2.70;;;-3.70;99.90;;;;;;5007137;28;20022;-84
2024/01/16 04:17:22;;;;;;;5.80;2.50;;;-3.70;99.90;;;;;;4989981;28;20125;-86
2024/01/16 04:19:48;;;;;;;6.97;2.97;;;-3.80;99.90;;;;;;5007522;28;20057;-84
2024/01/16 04:22:13;;;;;;;5.97;3.03;;;-3.80;99.90;;;;;;5008365;28;20076;-85
2024/01/16 04:24:39;;;;;;;5.37;2.80;;;-3.80;99.90;;;;;;5006833;28;20057;-88
2024/01/16 04:27:04;;;;;;;7.57;3.27;;;-3.80;99.90;;;;;;5007007;28;20148;-85
2024/01/16 04:29:30;;;;;;;5.33;2.83;;;-3.80;99.90;;;;;;5008492;28;20026;-84
2024/01/16 04:31:57;;;;;;;4.57;2.57;;;-3.90;99.90;;;;;;5007546;28;20030;-85
2024/01/16 04:34:22;;;;;;;5.47;2.53;;;-3.90;99.90;;;;;;5006966;28;20042;-85
2024/01/16 04:36:48;;;;;;;7.20;2.67;;;-3.90;99.90;;;;;;5007579;28;20084;-84
2024/01/16 04:39:14;;;;;;;6.13;2.67;;;-3.90;99.90;;;;;;5008944;28;20044;-84
2024/01/16 04:41:39;;;;;;;5.23;3.00;;;-3.90;99.90;;;;;;5008470;28;20030;-84
2024/01/16 04:44:05;;;;;;;5.97;2.87;;;-3.90;99.90;;;;;;5008104;28;20026;-86
2024/01/16 04:46:30;;;;;;;7.17;2.83;;;-4.00;99.90;;;;;;5008926;28;20873;-84
2024/01/16 04:48:56;;;;;;;5.37;2.60;;;-4.00;99.90;;;;;;4991888;28;20028;-84
2024/01/16 04:51:21;;;;;;;6.20;2.90;;;-4.00;99.90;;;;;;5009209;28;20018;-84
2024/01/16 04:53:47;;;;;;;5.57;2.90;;;-4.00;99.90;;;;;;5010369;28;20237;-86
2024/01/16 04:56:12;;;;;;;7.00;2.60;;;-4.00;99.90;;;;;;5010286;28;20509;-84
2024/01/16 04:58:38;;;;;;;6.10;2.87;;;-4.00;99.90;;;;;;5010587;28;20109;-84
2024/01/16 05:01:03;;;;;;;6.03;3.00;;;-4.00;99.90;;;;;;5012135;28;20045;-86
2024/01/16 05:03:29;;;;;;;9.10;2.73;;;-4.00;99.90;;;;;;5015626;28;20030;-87
2024/01/16 05:05:55;;;;;;;6.17;2.73;;;-4.00;99.90;;;;;;5011532;28;20406;-82
2024/01/16 05:08:22;;;;;;;7.23;3.40;;;-4.10;99.90;;;;;;5017533;28;20461;-82
2024/01/16 05:10:48;;;;;;;5.40;2.77;;;-4.10;99.90;;;;;;5010377;28;20041;-83
2024/01/16 05:13:13;;;;;;;7.20;3.33;;;-4.10;99.90;;;;;;4989158;28;20096;-85
2024/01/16 05:15:40;;;;;;;6.93;3.20;;;-4.10;99.90;;;;;;5004702;28;20027;-83
2024/01/16 05:18:06;;;;;;;6.70;3.10;;;-4.20;99.90;;;;;;5004372;28;20028;-83
2024/01/16 05:20:31;;;;;;;6.10;3.17;;;-4.20;99.90;;;;;;5005073;28;20762;-85
2024/01/16 05:22:57;;;;;;;8.50;3.23;;;-4.20;99.90;;;;;;5004359;28;20072;-84
2024/01/16 05:25:22;;;;;;;5.43;3.20;;;-4.20;99.90;;;;;;5004698;28;20065;-84
2024/01/16 05:27:49;;;;;;;9.67;3.87;;;-4.30;99.90;;;;;;5004850;28;20076;-84
2024/01/16 05:30:15;;;;;;;6.63;2.80;;;-4.30;99.90;;;;;;5005497;28;20049;-84
2024/01/16 05:32:41;;;;;;;5.77;3.10;;;-4.40;99.90;;;;;;5004026;28;21435;-84
2024/01/16 05:35:07;;;;;;;7.87;2.73;;;-4.40;99.90;;;;;;5004512;28;20133;-84
2024/01/16 05:37:33;;;;;;;6.73;3.00;;;-4.40;99.90;;;;;;5004302;28;20286;-83
2024/01/16 05:39:58;;;;;;;7.00;3.37;;;-4.50;99.90;;;;;;4986289;28;20041;-84
2024/01/16 05:42:24;;;;;;;6.67;3.00;;;-4.50;99.90;;;;;;4987727;28;20164;-84
2024/01/16 05:44:49;;;;;;;5.80;2.80;;;-4.50;99.90;;;;;;5004899;28;20499;-85
2024/01/16 05:47:15;;;;;;;4.77;2.83;;;-4.50;99.90;;;;;;5005406;28;20064;-81
2024/01/16 05:49:42;;;;;;;7.30;3.20;;;-4.60;99.90;;;;;;4983326;28;20107;-81
2024/01/16 05:52:08;;;;;;;7.33;2.97;;;-4.60;99.90;;;;;;5003096;28;20021;-82
2024/01/16 05:54:33;;;;;;;4.93;2.90;;;-4.60;99.90;;;;;;5004236;28;20044;-82
2024/01/16 05:56:59;;;;;;;6.37;2.93;;;-4.60;99.90;;;;;;5002645;28;20110;-85
2024/01/16 05:59:25;;;;;;;7.10;3.07;;;-4.60;99.90;;;;;;5006803;28;20367;-86
2024/01/16 06:01:50;;;;;;;6.70;3.50;;;-4.70;99.90;;;;;;5009274;28;20029;-85
2024/01/16 06:04:16;;;;;;;5.13;2.80;;;-4.60;99.90;;;;;;5006597;28;20554;-87
2024/01/16 06:06:47;;;;;;;6.50;3.00;;;-4.70;99.90;;;;;;5006935;28;20512;-85
2024/01/16 06:09:13;;;;;;;8.33;3.27;;;-4.60;99.90;;;;;;5009343;28;20028;-85
2024/01/16 06:11:40;;;;;;;7.47;3.17;;;-4.70;99.90;;;;;;5008775;28;20029;-85
2024/01/16 06:14:07;;;;;;;8.17;2.97;;;-4.70;99.90;;;;;;4991546;28;20073;-86
2024/01/16 06:16:32;;;;;;;7.53;3.27;;;-4.70;99.90;;;;;;5008626;28;20088;-87
2024/01/16 06:18:58;;;;;;;5.67;2.73;;;-4.70;99.90;;;;;;5008573;28;20065;-86
2024/01/16 06:21:24;;;;;;;8.70;3.20;;;-4.80;99.90;;;;;;5007573;28;20456;-86
2024/01/16 06:23:50;;;;;;;5.83;2.93;;;-4.80;99.90;;;;;;5008125;28;20034;-87
2024/01/16 06:26:16;;;;;;;6.83;2.70;;;-4.80;99.90;;;;;;5007750;28;20026;-86
2024/01/16 06:28:42;;;;;;;7.47;3.40;;;-4.80;99.90;;;;;;5010030;28;20036;-85
2024/01/16 06:31:08;;;;;;;4.87;3.13;;;-4.80;99.90;;;;;;5013097;28;20037;-85
2024/01/16 06:33:34;;;;;;;6.10;3.30;;;-4.80;99.90;;;;;;5014513;28;20856;-85
2024/01/16 06:36:00;;;;;;;5.80;3.10;;;-4.80;99.90;;;;;;5012635;28;20034;-85
2024/01/16 06:38:25;;;;;;;5.80;2.90;;;-4.80;99.90;;;;;;5013177;28;20026;-85
2024/01/16 06:40:51;;;;;;;8.80;3.70;;;-4.80;99.90;;;;;;5012656;28;20038;-85
2024/01/16 06:43:16;;;;;;;7.07;3.57;;;-4.80;99.90;;;;;;5012375;28;20085;-87
2024/01/16 06:45:43;;;;;;;6.60;2.97;;;-4.80;99.90;;;;;;4995533;28;20022;-87
2024/01/16 06:48:08;;;;;;;8.47;3.30;;;-4.90;99.90;;;;;;5011968;28;20466;-87
2024/01/16 06:50:34;;;;;;;8.00;3.50;;;-4.90;99.90;;;;;;5014431;28;20076;-86
2024/01/16 06:52:59;;;;;;;6.53;3.70;;;-4.80;99.90;;;;;;5012017;28;20041;-86
2024/01/16 06:55:25;;;;;;;6.37;3.77;;;-4.80;99.90;;;;;;5014223;28;20076;-90
2024/01/16 06:57:50;;;;;;;12.00;4.27;;;-4.90;99.90;;;;;;5011962;28;20222;-87
2024/01/16 07:00:16;;;;;;;7.57;4.40;;;-4.80;99.90;;;;;;5011164;28;20128;-84
2024/01/16 07:02:44;;;;;;;7.17;3.50;;;-4.80;99.90;;;;;;4994996;28;20044;-85
2024/01/16 07:05:12;;;;;;;6.70;3.50;;;-4.80;99.90;;;;;;5012623;28;20052;-86
2024/01/16 07:07:37;;;;;;;6.67;3.43;;;-4.80;99.90;;;;;;5006964;28;20022;-85
2024/01/16 07:10:03;;;;;;;6.33;3.30;;;-4.80;99.90;;;;;;5006054;28;20464;-85
2024/01/16 07:12:29;;;;;;;8.53;3.03;;;-4.80;99.90;;;;;;4986574;28;20044;-85
2024/01/16 07:14:54;;;;;;;11.43;3.63;;;-4.70;99.90;;;;;;5009394;28;20030;-81
2024/01/16 07:17:20;;;;;;;8.83;3.10;;;-4.70;99.90;;;;;;5006895;28;20094;-87
2024/01/16 07:19:45;;;;;;;7.47;3.03;;;-4.60;99.90;;;;;;5006543;28;20102;-85
2024/01/16 07:22:11;;;;;;;11.93;4.20;;;-4.60;99.90;;;;;;5011661;28;20038;-84
2024/01/16 07:24:36;;;;;;;9.17;3.93;;;-4.50;99.90;;;;;;5005919;28;20480;-85
2024/01/16 07:27:02;;;;;;;7.87;3.47;;;-4.50;99.90;;;;;;5007396;28;20030;-85
2024/01/16 07:29:28;;;;;;;6.57;3.50;;;-4.50;99.90;;;;;;5006330;28;20648;-82
2024/01/16 07:31:53;;;;;;;7.23;3.47;;;-4.40;99.90;;;;;;4988916;28;20138;-84
2024/01/16 07:34:22;;;;;;;7.67;3.50;;;-4.40;99.90;;;;;;5006285;28;20030;-84
2024/01/16 07:36:48;;;;;;;6.67;3.53;;;-4.40;99.90;;;;;;5005363;28;20029;-83
2024/01/16 07:39:14;;;;;;;7.43;3.87;;;-4.30;99.90;;;;;;5004440;28;20491;-83
2024/01/16 07:41:39;;;;;;;9.60;3.50;;;-4.20;99.90;;;;;;5002976;28;20030;-83
2024/01/16 07:44:05;;;;;;;5.27;3.10;;;-4.20;99.90;;;;;;5005255;28;20029;-85
2024/01/16 07:46:31;;;;;;;6.73;3.40;;;-4.10;99.90;;;;;;5005443;28;20033;-84
2024/01/16 07:48:57;;;;;;;8.03;3.70;;;-4.10;99.90;;;;;;5005152;28;20026;-84
2024/01/16 07:51:22;;;;;;;9.77;3.13;;;-4.10;99.90;;;;;;5006119;28;21339;-84
2024/01/16 07:53:48;;;;;;;8.60;3.87;;;-4.00;99.90;;;;;;5004539;28;20675;-84
2024/01/16 07:56:14;;;;;;;7.70;3.17;;;-4.00;99.90;;;;;;5004921;28;20042;-83
2024/01/16 07:58:41;;;;;;;7.13;3.47;;;-3.90;99.90;;;;;;5002699;28;20132;-87
2024/01/16 08:01:06;;;;;;;6.93;3.40;;;-3.80;99.90;;;;;;5002493;28;20034;-84
2024/01/16 08:03:32;;;;;;;7.47;3.60;;;-3.70;99.90;;;;;;5005337;28;20038;-86
2024/01/16 08:05:59;;;;;;;8.00;3.27;;;-3.70;99.90;;;;;;4990080;28;20420;-89
2024/01/16 08:08:24;;;;;;;6.93;3.27;;;-3.60;99.90;;;;;;5008566;28;20068;-85
2024/01/16 08:10:50;;;;;;;5.30;2.77;;;-3.50;99.90;;;;;;5009359;28;20026;-87
2024/01/16 08:13:15;;;;;;;6.63;3.33;;;-3.50;99.90;;;;;;5007442;28;20032;-85
2024/01/16 08:15:41;;;;;;;6.63;3.70;;;-3.40;99.90;;;;;;5008779;28;20392;-81
2024/01/16 08:18:07;;;;;;;6.63;3.27;;;-3.30;99.90;;;;;;4988608;28;20042;-82
2024/01/16 08:20:32;;;;;;;5.57;3.07;;;-3.30;99.90;;;;;;5007900;28;20033;-83
2024/01/16 08:22:58;;;;;;;5.47;3.07;;;-3.20;99.90;;;;;;5007488;28;20041;-86
2024/01/16 08:25:23;;;;;;;11.40;3.80;;;-3.20;99.90;;;;;;5013077;28;20028;-87
2024/01/16 08:27:49;;;;;;;6.13;3.17;;;-3.10;99.90;;;;;;5014715;28;20028;-86
2024/01/16 08:30:15;;;;;;;9.90;3.07;;;-3.10;99.90;;;;;;5014570;28;20129;-85
2024/01/16 08:32:40;;;;;;;7.33;3.07;;;-3.00;99.90;;;;;;5014226;28;20097;-86
2024/01/16 08:35:08;;;;;;;6.77;3.17;;;-2.90;99.90;;;;;;5014494;28;20080;-87
2024/01/16 08:37:34;;;;;;;6.03;3.37;;;-2.80;99.90;;;;;;5014525;28;20604;-85
2024/01/16 08:39:59;;;;;;;7.40;3.30;;;-2.70;99.90;;;;;;5013905;28;20033;-88
2024/01/16 08:42:25;;;;;;;10.20;4.17;;;-2.60;99.90;;;;;;5014698;28;20032;-87
2024/01/16 08:44:51;;;;;;;5.53;2.90;;;-2.60;99.90;;;;;;4993197;28;20087;-87
2024/01/16 08:47:16;;;;;;;10.63;3.17;;;-2.50;99.90;;;;;;5010413;28;20018;-88
2024/01/16 08:49:43;;;;;;;9.87;3.33;;;-2.40;99.90;;;;;;5011797;28;20037;-87
2024/01/16 08:52:09;;;;;;;7.07;3.07;;;-2.40;99.90;;;;;;5012525;28;20034;-86
2024/01/16 08:54:35;;;;;;;5.43;2.97;;;-2.30;99.90;;;;;;5014101;28;20164;-87
2024/01/16 08:57:01;;;;;;;7.03;3.30;;;-2.20;99.90;;;;;;5015847;28;20049;-88
2024/01/16 08:59:28;;;;;;;7.13;2.97;;;-2.20;99.90;;;;;;5015545;28;20072;-90
2024/01/16 09:01:53;;;;;;;6.80;3.80;;;-2.20;99.90;;;;;;5008676;28;20037;-86
2024/01/16 09:04:19;;;;;;;4.80;2.83;;;-2.00;99.90;;;;;;5013756;28;20037;-86
2024/01/16 09:06:45;;;;;;;9.47;3.47;;;-2.00;99.90;;;;;;5002716;28;20049;-87
2024/01/16 09:09:12;;;;;;;10.97;3.20;;;-2.00;99.90;;;;;;5000091;28;20041;-86
2024/01/16 09:11:38;;;;;;;7.87;3.50;;;-1.80;99.90;;;;;;5001936;28;20026;-87
2024/01/16 09:14:03;;;;;;;6.47;3.70;;;-1.80;99.90;;;;;;5002639;28;20045;-86
2024/01/16 09:16:29;;;;;;;7.20;3.70;;;-1.70;99.90;;;;;;5002565;28;20056;-86
2024/01/16 09:18:54;;;;;;;7.23;3.67;;;-1.60;99.90;;;;;;4984400;28;20088;-87
2024/01/16 09:21:20;;;;;;;5.73;3.47;;;-1.50;99.90;;;;;;5001786;28;20038;-86
2024/01/16 09:23:45;;;;;;;8.47;3.53;;;-1.40;99.90;;;;;;5001469;28;20034;-86
2024/01/16 09:26:11;;;;;;;8.77;3.73;;;-1.30;99.90;;;;;;4984159;28;20041;-88
2024/01/16 09:28:36;;;;;;;8.30;3.47;;;-1.20;99.90;;;;;;5000296;28;20026;-86
2024/01/16 09:31:02;;;;;;;8.50;3.33;;;-1.10;99.90;;;;;;5001160;28;20068;-87
2024/01/16 09:33:28;;;;;;;8.20;4.20;;;-1.00;99.90;;;;;;4999432;28;20157;-86
2024/01/16 09:35:55;;;;;;;7.07;3.63;;;-1.00;99.90;;;;;;5003474;28;20019;-86
2024/01/16 09:38:20;;;;;;;12.93;3.93;;;-0.90;99.90;;;;;;5002595;28;20131;-86
2024/01/16 09:40:47;;;;;;;6.30;3.90;;;-0.80;99.90;;;;;;5003120;28;20041;-86
2024/01/16 09:43:13;;;;;;;6.97;3.10;;;-0.70;99.90;;;;;;5001319;28;20126;-87
2024/01/16 09:45:38;;;;;;;7.67;4.00;;;-0.70;99.90;;;;;;4998741;28;20720;-87
2024/01/16 09:48:05;;;;;;;6.97;3.70;;;-0.60;99.90;;;;;;5001264;28;20033;-86
2024/01/16 09:50:32;;;;;;;10.77;3.50;;;-0.60;99.90;;;;;;5001063;28;20073;-87
2024/01/16 09:52:58;;;;;;;10.00;4.13;;;-0.60;99.90;;;;;;5002876;28;20070;-87
2024/01/16 09:55:25;;;;;;;5.93;3.60;;;-0.70;99.90;;;;;;4999734;28;20034;-86
2024/01/16 09:57:55;;;;;;;6.93;3.47;;;-0.70;99.90;;;;;;4995635;28;21645;-85
2024/01/16 10:00:21;;;;;;;11.83;4.90;;;-0.70;99.90;;;;;;4998916;28;20218;-88
2024/01/16 10:02:47;;;;;;;8.10;4.13;;;-0.70;99.90;;;;;;4999585;28;20106;-87
2024/01/16 10:05:14;;;;;;;6.60;4.00;;;-0.70;99.90;;;;;;5000520;28;20037;-85
2024/01/16 10:07:41;;;;;;;10.17;3.90;;;-0.60;99.90;;;;;;5000527;28;20248;-86
2024/01/16 10:10:10;;;;;;;6.43;3.53;;;-0.60;99.90;;;;;;5000845;28;20113;-84
2024/01/16 10:12:39;;;;;;;6.63;4.10;;;-0.50;99.90;;;;;;4984699;28;21427;-85
2024/01/16 10:15:08;;;;;;;5.40;3.40;;;-0.50;99.90;;;;;;4999856;28;20045;-86
2024/01/16 10:17:44;;;;;;;5.70;3.60;;;-0.40;99.90;;;;;;5001355;28;20053;-84
2024/01/16 10:20:13;;;;;;;7.70;3.97;;;-0.30;99.90;;;;;;5000092;28;20029;-85
2024/01/16 10:22:40;;;;;;;7.50;4.40;;;-0.20;99.90;;;;;;5005019;28;20493;-84
2024/01/16 10:25:16;;;;;;;9.07;3.90;;;-0.20;99.90;;;;;;5002319;28;20026;-84
2024/01/16 10:27:42;;;;;;;10.23;3.73;;;0.00;99.90;;;;;;5008267;28;20025;-84
2024/01/16 10:30:10;;;;;;;9.93;3.30;;;0.10;99.90;;;;;;5007493;28;20062;-84
2024/01/16 10:32:44;;;;;;;6.40;3.07;;;0.10;99.90;;;;;;5007090;28;20047;-83
2024/01/16 10:35:13;;;;;;;10.53;3.37;;;0.20;99.90;;;;;;5006160;28;20026;-84
2024/01/16 10:37:47;;;;;;;9.50;4.40;;;0.30;99.90;;;;;;5006889;28;20671;-84
2024/01/16 10:40:19;;;;;;;4.70;3.27;;;0.30;99.90;;;;;;5007893;28;20132;-85
2024/01/16 10:42:46;;;;;;;6.03;3.40;;;0.30;99.90;;;;;;5007847;28;20034;-85
2024/01/16 10:45:19;;;;;;;7.93;3.57;;;0.30;99.90;;;;;;5007334;28;20041;-84
2024/01/16 10:47:46;;;;;;;6.47;2.60;;;0.40;99.90;;;;;;5007915;28;21220;-85
2024/01/16 10:50:12;;;;;;;10.53;3.93;;;0.50;99.90;;;;;;5005128;28;20389;-79
2024/01/16 10:52:46;;;;;;;6.97;3.57;;;0.60;99.90;;;;;;5000903;28;20053;-79
2024/01/16 10:55:22;;;;;;;7.47;3.67;;;0.60;99.90;;;;;;5004685;28;20018;-82
2024/01/16 10:57:49;;;;;;;6.90;3.23;;;0.60;99.90;;;;;;5013483;28;20030;-82
2024/01/16 11:00:19;;;;;;;8.03;3.50;;;0.70;99.90;;;;;;5009611;28;20178;-81
2024/01/16 11:03:01;;;;;;;14.93;7.70;;;0.70;99.90;;;;;;5005574;28;20041;-84
2024/01/16 11:05:30;;;;;;;12.47;5.60;;;0.70;99.90;;;;;;5005711;28;20034;-84
2024/01/16 11:07:58;;;;;;;10.87;5.00;;;0.60;99.90;;;;;;5007667;28;20429;-84
2024/01/16 11:10:25;;;;;;;10.90;5.10;;;0.60;99.90;;;;;;4990999;28;20030;-85
2024/01/16 11:12:52;;;;;;;8.20;3.80;;;0.60;99.90;;;;;;5006492;28;20562;-83
2024/01/16 11:15:19;;;;;;;7.67;3.77;;;0.70;99.90;;;;;;5006511;28;20033;-83
2024/01/16 11:17:45;;;;;;;6.13;3.50;;;0.70;99.90;;;;;;5007804;28;20029;-84
2024/01/16 11:20:13;;;;;;;10.13;3.73;;;0.70;99.90;;;;;;5006557;28;20061;-84
2024/01/16 11:22:42;;;;;;;6.57;3.50;;;0.70;99.90;;;;;;5006563;28;20045;-84
2024/01/16 11:25:09;;;;;;;7.23;3.60;;;0.60;99.90;;;;;;4989297;28;20030;-84
2024/01/16 11:27:37;;;;;;;6.40;3.30;;;0.60;99.90;;;;;;5003083;28;20034;-84
2024/01/16 11:30:03;;;;;;;6.37;4.13;;;0.60;99.90;;;;;;5004743;28;20099;-84
2024/01/16 11:32:36;;;;;;;6.63;3.60;;;0.60;99.90;;;;;;5007945;28;20030;-84
2024/01/16 11:35:04;;;;;;;8.30;3.37;;;0.60;99.90;;;;;;5007301;28;20037;-84
2024/01/16 11:37:33;;;;;;;5.73;3.33;;;0.60;99.90;;;;;;5005787;28;20119;-84
2024/01/16 11:40:19;;;;;;;6.53;3.33;;;0.60;99.90;;;;;;5007655;28;20045;-84
2024/01/16 11:42:44;;;;;;;7.53;3.45;;;0.60;99.90;;;;;;5007696;28;20102;-86
2024/01/16 11:45:42;;;;;;;6.87;3.33;;;0.60;99.90;;;;;;5005805;28;20136;-84
2024/01/16 11:48:15;;;;;;;9.23;3.57;;;0.60;99.90;;;;;;4973139;28;20105;-84
2024/01/16 11:50:42;;;;;;;6.80;3.60;;;0.60;99.90;;;;;;5004897;28;21045;-84
2024/01/16 11:53:08;;;;;;;6.87;3.40;;;0.60;99.90;;;;;;5009350;28;20496;-84
2024/01/16 11:55:43;;;;;;;7.73;3.50;;;0.50;99.90;;;;;;5011631;28;20213;-85
2024/01/16 11:58:39;;;;;;;4.35;3.15;;;0.50;99.90;;;;;;5009090;28;20109;-85
2024/01/16 12:01:05;;;;;;;;;;;0.50;99.90;;;;;;5011428;28;20026;-84
2024/01/16 12:03:31;;;;;;;8.43;3.10;;;0.60;99.90;;;;;;5015866;28;19921;-84
2024/01/16 12:05:57;;;;;;;4.83;2.83;;;0.60;99.90;;;;;;5013850;28;20013;-84
2024/01/16 12:08:23;;;;;;;5.97;3.00;;;0.70;99.90;;;;;;5009009;28;20056;-84
2024/01/16 12:10:48;;;;;;;6.97;3.10;;;0.70;99.90;;;;;;5009622;28;20041;-83
2024/01/16 12:13:14;;;;;;;6.33;2.83;;;0.70;99.90;;;;;;5009754;28;20038;-83
2024/01/16 12:15:41;;;;;;;6.27;2.70;;;0.80;99.90;;;;;;5011037;28;20018;-82
2024/01/16 12:18:07;;;;;;;7.27;2.70;;;0.80;99.90;;;;;;5010271;28;20021;-72
2024/01/16 12:20:36;;;;;;;6.80;2.50;;;0.80;99.90;;;;;;5003363;28;20037;-81
2024/01/16 12:23:02;;;;;;;7.70;3.00;;;0.80;99.90;;;;;;5001985;28;20032;-83
2024/01/16 12:25:30;;;;;;;5.87;2.90;;;0.80;99.90;;;;;;5003623;28;20113;-82
2024/01/16 12:27:59;;;;;;;5.30;2.80;;;0.90;99.90;;;;;;4999684;28;20090;-82
2024/01/16 12:30:32;;;;;;;7.43;2.87;;;0.90;99.90;;;;;;5001354;28;20237;-81
2024/01/16 12:33:06;;;;;;;5.40;3.17;;;0.90;99.90;;;;;;5000407;28;20054;-82
2024/01/16 12:35:35;;;;;;;7.13;3.03;;;1.00;99.90;;;;;;5001263;28;20049;-81
2024/01/16 12:38:02;;;;;;;5.17;2.90;;;1.10;99.90;;;;;;5000708;28;20042;-83
2024/01/16 12:40:28;;;;;;;7.23;3.00;;;1.10;99.90;;;;;;5000290;28;20030;-83
2024/01/16 12:42:54;;;;;;;6.43;3.27;;;1.10;99.90;;;;;;5000392;28;20108;-83
2024/01/16 12:45:20;;;;;;;6.07;2.57;;;1.10;99.90;;;;;;5001327;28;20033;-81